Time;durP1;ratioP1;P1;durP2;ratioP2;P2;SDS_P1;SDS_P2;PMS_P1;PMS_P2;Temp;Humidity;BMP_temperature;BMP_pressure;BME280_temperature;BME280_humidity;BME280_pressure;Samples;Min_cycle;Max_cycle;Signal;HPM_P1;HPM_P2
2022/10/23 00:00:38;;;;;;;58.80;27.55;;;;;;;12.95;100.00;101340.53;6134727;23;20064;-73
2022/10/23 00:03:04;;;;;;;74.38;29.42;;;;;;;12.89;100.00;101335.72;6133513;23;20002;-73
2022/10/23 00:05:30;;;;;;;74.85;32.13;;;;;;;12.78;100.00;101323.31;6135009;23;20112;-73
2022/10/23 00:07:57;;;;;;;77.28;32.03;;;;;;;12.81;100.00;101327.53;6132757;23;20042;-73
2022/10/23 00:10:25;;;;;;;60.72;28.50;;;;;;;12.82;100.00;101323.81;6133074;23;19998;-73
2022/10/23 00:12:51;;;;;;;72.32;30.30;;;;;;;12.71;100.00;101331.25;6133004;23;20056;-74
2022/10/23 00:15:19;;;;;;;74.15;31.83;;;;;;;12.75;100.00;101323.59;6134500;23;20033;-73
2022/10/23 00:17:45;;;;;;;64.47;30.75;;;;;;;12.83;100.00;101330.94;6132534;23;20076;-74
2022/10/23 00:20:11;;;;;;;57.53;24.83;;;;;;;12.93;100.00;101337.13;6133155;23;20041;-73
2022/10/23 00:22:37;;;;;;;80.97;34.70;;;;;;;12.79;100.00;101330.44;6132891;23;20017;-73
2022/10/23 00:25:07;;;;;;;70.05;28.35;;;;;;;12.67;100.00;101332.56;6132809;23;20009;-73
2022/10/23 00:27:33;;;;;;;61.67;27.92;;;;;;;12.68;100.00;101339.69;6133697;23;20001;-73
2022/10/23 00:29:59;;;;;;;94.10;35.85;;;;;;;12.48;100.00;101340.94;6132572;23;20038;-73
2022/10/23 00:32:25;;;;;;;51.95;29.95;;;;;;;12.39;100.00;101339.19;6134547;23;20014;-72
2022/10/23 00:34:50;;;;;;;60.42;29.73;;;;;;;12.44;100.00;101331.38;6132574;23;19998;-72
2022/10/23 00:37:15;;;;;;;70.88;29.98;;;;;;;12.41;100.00;101331.72;6132709;23;20016;-74
2022/10/23 00:39:41;;;;;;;68.55;32.90;;;;;;;12.36;100.00;101334.91;6132324;23;20005;-72
2022/10/23 00:42:12;;;;;;;78.63;34.03;;;;;;;12.30;100.00;101334.69;6132460;23;20005;-74
2022/10/23 00:44:41;;;;;;;86.72;37.80;;;;;;;12.44;100.00;101328.66;6133107;23;20456;-72
2022/10/23 00:47:06;;;;;;;77.65;31.88;;;;;;;12.27;100.00;101329.59;6134011;23;20001;-72
2022/10/23 00:49:32;;;;;;;78.05;31.10;;;;;;;12.26;100.00;101333.28;6134524;23;20037;-74
2022/10/23 00:52:04;;;;;;;64.55;30.05;;;;;;;12.26;100.00;101333.28;6108378;23;20010;-74
2022/10/23 00:54:32;;;;;;;;;;;;;;;12.35;100.00;101335.06;6108792;23;20009;-72
2022/10/23 00:57:00;;;;;;;74.25;31.85;;;;;;;12.34;100.00;101336.09;6133516;23;19904;-73
2022/10/23 00:59:26;;;;;;;66.43;30.23;;;;;;;12.52;100.00;101339.63;6133797;23;19998;-73
2022/10/23 01:01:52;;;;;;;67.85;28.90;;;;;;;12.45;100.00;101338.50;6133968;23;20009;-72
2022/10/23 01:04:19;;;;;;;62.83;30.95;;;;;;;12.37;100.00;101346.63;6108048;23;20001;-72
2022/10/23 01:06:55;;;;;;;83.40;34.00;;;;;;;12.35;100.00;101337.78;6133290;23;19998;-72
2022/10/23 01:09:42;;;;;;;85.68;35.90;;;;;;;12.36;100.00;101334.06;6134431;23;20143;-72
2022/10/23 01:12:13;;;;;;;87.82;33.83;;;;;;;12.35;100.00;101333.19;6134259;23;20005;-72
2022/10/23 01:14:59;;;;;;;63.75;29.95;;;;;;;12.28;100.00;101331.28;6134195;23;20002;-72
2022/10/23 01:17:36;;;;;;;93.38;37.53;;;;;;;12.29;100.00;101328.41;6133540;23;20100;-72
2022/10/23 01:20:33;;;;;;;92.20;36.50;;;;;;;12.22;100.00;101328.19;6107808;23;19994;-73
2022/10/23 01:23:11;;;;;;;85.45;35.35;;;;;;;12.16;100.00;101328.81;6107990;23;20017;-73
2022/10/23 01:25:45;;;;;;;96.20;43.25;;;;;;;12.25;100.00;101320.72;6107734;23;20006;-73
2022/10/23 01:28:17;;;;;;;89.60;36.45;;;;;;;12.16;100.00;101315.25;6107152;23;20002;-73
2022/10/23 01:30:43;;;;;;;65.35;33.38;;;;;;;12.17;100.00;101325.09;6133400;23;20006;-73
2022/10/23 01:33:13;;;;;;;92.28;40.25;;;;;;;12.15;100.00;101321.69;6107592;23;20013;-73
2022/10/23 01:35:49;;;;;;;64.57;34.83;;;;;;;12.05;100.00;101320.91;6133444;23;20013;-73
2022/10/23 01:38:21;;;;;;;88.40;37.05;;;;;;;12.03;100.00;101322.94;6133568;23;20006;-73
2022/10/23 01:40:54;;;;;;;83.93;38.08;;;;;;;11.99;100.00;101324.25;6107745;23;20001;-73
2022/10/23 01:43:26;;;;;;;71.50;34.63;;;;;;;12.02;100.00;101321.22;6108044;23;20021;-73
2022/10/23 01:46:05;;;;;;;83.85;36.45;;;;;;;11.95;100.00;101325.59;6107951;23;20010;-73
2022/10/23 01:48:33;;;;;;;86.00;38.70;;;;;;;12.06;100.00;101328.06;6132711;23;20016;-73
2022/10/23 01:51:03;;;;;;;66.85;28.92;;;;;;;12.07;100.00;101318.06;6130966;23;20008;-73
2022/10/23 01:53:30;;;;;;;64.25;30.95;;;;;;;12.20;100.00;101319.34;6132209;23;20002;-73
2022/10/23 01:55:58;;;;;;;109.10;40.47;;;;;;;12.19;100.00;101312.22;6131753;23;20021;-73
2022/10/23 01:58:27;;;;;;;77.00;34.53;;;;;;;12.26;100.00;101322.41;6131477;23;19994;-73
2022/10/23 02:00:58;;;;;;;94.10;34.95;;;;;;;12.05;100.00;101320.06;6132778;23;20048;-73
2022/10/23 02:03:27;;;;;;;73.93;31.05;;;;;;;11.98;100.00;101319.84;6156118;23;20001;-73
2022/10/23 02:05:53;;;;;;;64.90;28.73;;;;;;;11.98;100.00;101318.97;6132269;23;20005;-73
2022/10/23 02:08:18;;;;;;;64.45;30.45;;;;;;;12.01;100.00;101314.09;6132043;23;20010;-73
2022/10/23 02:10:57;;;;;;;53.03;27.23;;;;;;;11.99;100.00;101310.69;6131924;23;20056;-73
2022/10/23 02:16:25;;;;;;;109.63;40.35;;;;;;;11.56;100.00;101320.44;6179307;23;20191;-74
2022/10/23 02:19:01;;;;;;;83.90;36.33;;;;;;;11.54;100.00;101311.59;6190255;23;19997;-76
2022/10/23 02:21:33;;;;;;;105.78;40.50;;;;;;;11.45;100.00;101312.50;6190514;23;20227;-75
2022/10/23 02:24:08;;;;;;;80.05;34.63;;;;;;;11.46;100.00;101303.38;6190133;23;20095;-75
2022/10/23 02:26:42;;;;;;;95.30;38.97;;;;;;;11.51;100.00;101306.47;6186753;23;20004;-75
2022/10/23 02:29:17;;;;;;;125.70;44.17;;;;;;;11.58;100.00;101306.72;6187114;23;20088;-75
2022/10/23 02:31:43;;;;;;;96.90;41.20;;;;;;;11.63;100.00;101305.25;6187112;23;20008;-75
2022/10/23 02:34:08;;;;;;;124.32;43.15;;;;;;;11.78;100.00;101301.97;6212809;23;20009;-76
2022/10/23 02:36:34;;;;;;;96.60;39.75;;;;;;;11.79;100.00;101304.53;6190350;23;20012;-75
2022/10/23 02:38:59;;;;;;;79.22;34.97;;;;;;;11.80;100.00;101299.97;6192496;23;20001;-75
2022/10/23 02:41:35;;;;;;;88.97;38.80;;;;;;;11.77;100.00;101300.28;6216926;23;20012;-75
2022/10/23 02:44:15;;;;;;;71.82;31.30;;;;;;;11.67;100.00;101312.06;6191736;23;20084;-75
2022/10/23 02:46:52;;;;;;;79.63;34.70;;;;;;;11.68;100.00;101302.94;6192084;23;19997;-75
2022/10/23 02:49:30;;;;;;;94.15;40.08;;;;;;;11.79;100.00;101309.09;6192342;23;20011;-74
2022/10/23 02:52:10;;;;;;;103.80;38.95;;;;;;;11.85;100.00;101313.94;6191952;23;20005;-74
2022/10/23 02:54:49;;;;;;;80.10;34.97;;;;;;;11.75;100.00;101310.44;6191212;23;19997;-74
2022/10/23 02:57:36;;;;;;;87.32;35.50;;;;;;;11.69;100.00;101299.19;6191551;23;20040;-74
2022/10/23 03:00:12;;;;;;;94.30;36.30;;;;;;;11.70;100.00;101305.47;6191986;23;20061;-74
2022/10/23 03:02:49;;;;;;;83.75;33.03;;;;;;;11.55;100.00;101298.91;6193530;23;20036;-74
2022/10/23 03:05:18;;;;;;;90.65;36.67;;;;;;;11.44;100.00;101305.38;6192515;23;20044;-75
2022/10/23 03:07:45;;;;;;;77.07;31.83;;;;;;;11.58;100.00;101304.84;6191731;23;19997;-75
2022/10/23 03:10:11;;;;;;;87.38;33.13;;;;;;;11.57;100.00;101300.44;6191599;23;20028;-75
2022/10/23 03:12:36;;;;;;;77.38;33.10;;;;;;;11.61;100.00;101301.84;6192600;23;20495;-75
2022/10/23 03:15:03;;;;;;;79.40;32.05;;;;;;;11.71;100.00;101296.31;6192365;23;20001;-75
2022/10/23 03:17:28;;;;;;;91.10;32.75;;;;;;;11.57;100.00;101295.00;6192669;23;20004;-74
2022/10/23 03:19:54;;;;;;;86.55;35.83;;;;;;;11.37;100.00;101293.44;6191762;23;20001;-75
2022/10/23 03:22:20;;;;;;;82.55;32.70;;;;;;;11.46;100.00;101297.94;6192444;23;20001;-75
2022/10/23 03:24:45;;;;;;;81.55;30.73;;;;;;;11.51;100.00;101290.19;6193427;23;20045;-74
2022/10/23 03:27:11;;;;;;;78.00;32.22;;;;;;;11.46;100.00;101300.66;6219111;23;20005;-74
2022/10/23 03:29:36;;;;;;;80.05;31.88;;;;;;;11.42;100.00;101304.69;6193715;23;20059;-75
2022/10/23 03:32:02;;;;;;;85.28;33.03;;;;;;;11.44;100.00;101310.81;6193440;23;20001;-75
2022/10/23 03:34:28;;;;;;;78.65;31.85;;;;;;;11.50;100.00;101303.91;6193900;23;20013;-74
2022/10/23 03:36:53;;;;;;;65.95;29.58;;;;;;;11.51;100.00;101306.47;6193458;23;20008;-74
2022/10/23 03:39:18;;;;;;;85.28;32.53;;;;;;;11.49;100.00;101297.66;6193624;23;20005;-75
2022/10/23 03:41:44;;;;;;;77.28;32.85;;;;;;;11.50;100.00;101293.94;6218672;23;20012;-75
2022/10/23 03:44:09;;;;;;;91.60;35.33;;;;;;;11.49;100.00;101286.81;6193420;23;20048;-75
2022/10/23 03:46:35;;;;;;;61.53;26.95;;;;;;;11.53;100.00;101285.47;6194645;23;20004;-75
2022/10/23 03:49:00;;;;;;;59.78;25.52;;;;;;;11.52;100.00;101289.19;6193118;23;20027;-74
2022/10/23 03:51:26;;;;;;;75.30;29.65;;;;;;;11.54;100.00;101295.34;6193102;23;20092;-75
2022/10/23 03:53:52;;;;;;;52.17;23.27;;;;;;;11.62;100.00;101298.13;6193178;23;20063;-75
2022/10/23 03:56:17;;;;;;;46.38;23.17;;;;;;;11.56;100.00;101290.59;6218053;23;20019;-74
2022/10/23 03:58:42;;;;;;;80.68;31.60;;;;;;;11.39;100.00;101302.28;6218205;23;20071;-74
2022/10/23 04:01:08;;;;;;;59.13;24.63;;;;;;;11.28;100.00;101300.66;6217879;23;20013;-74
2022/10/23 04:03:34;;;;;;;116.07;32.10;;;;;;;11.30;100.00;101292.34;6193322;23;20028;-75
2022/10/23 04:05:59;;;;;;;110.25;34.42;;;;;;;11.26;100.00;101297.22;6217493;23;19997;-75
2022/10/23 04:08:24;;;;;;;105.53;32.47;;;;;;;11.23;100.00;101302.09;6192549;23;20005;-75
2022/10/23 04:10:50;;;;;;;159.60;37.50;;;;;;;11.05;100.00;101297.50;6193910;23;20032;-74
2022/10/23 04:13:15;;;;;;;131.48;32.28;;;;;;;11.12;100.00;101290.47;6194466;23;20090;-76
2022/10/23 04:15:48;;;;;;;122.20;30.40;;;;;;;11.10;100.00;101291.63;6217502;23;20009;-74
2022/10/23 04:18:13;;;;;;;118.57;31.98;;;;;;;11.08;100.00;101286.38;6192691;23;20383;-74
2022/10/23 04:20:39;;;;;;;133.48;35.72;;;;;;;11.19;100.00;101292.56;6192574;23;20001;-75
2022/10/23 04:23:04;;;;;;;115.28;32.40;;;;;;;11.11;100.00;101294.19;6192967;23;20012;-74
2022/10/23 04:25:29;;;;;;;195.68;39.40;;;;;;;10.93;100.00;101290.56;6217703;23;20008;-75
2022/10/23 04:27:55;;;;;;;106.03;34.05;;;;;;;10.91;100.00;101292.56;6192138;23;20104;-73
2022/10/23 04:30:20;;;;;;;102.60;33.17;;;;;;;10.88;100.00;101282.88;6192496;23;20001;-74
2022/10/23 04:32:49;;;;;;;108.78;31.60;;;;;;;10.88;100.00;101276.59;6192778;23;20005;-75
2022/10/23 04:35:14;;;;;;;158.55;34.05;;;;;;;10.79;100.00;101272.09;6193332;23;20007;-74
2022/10/23 04:37:40;;;;;;;141.68;34.25;;;;;;;10.72;100.00;101271.00;6192148;23;20036;-74
2022/10/23 04:40:06;;;;;;;125.68;32.83;;;;;;;10.83;100.00;101279.78;6217118;23;20108;-74
2022/10/23 04:42:31;;;;;;;68.88;25.92;;;;;;;10.78;100.00;101270.41;6192334;23;20001;-74
2022/10/23 04:44:57;;;;;;;115.53;31.33;;;;;;;10.93;100.00;101268.03;6217040;23;20032;-75
2022/10/23 04:47:22;;;;;;;93.80;31.70;;;;;;;11.06;100.00;101253.13;6192569;23;20129;-75
2022/10/23 04:49:47;;;;;;;51.85;25.50;;;;;;;11.01;100.00;101260.84;6217242;23;20001;-74
2022/10/23 04:52:13;;;;;;;51.17;25.63;;;;;;;11.11;100.00;101256.25;6217008;23;20051;-75
2022/10/23 04:54:39;;;;;;;81.85;28.65;;;;;;;10.99;100.00;101262.88;6192335;23;20008;-75
2022/10/23 04:57:04;;;;;;;85.60;30.65;;;;;;;10.77;100.00;101257.88;6217489;23;20009;-74
2022/10/23 04:59:29;;;;;;;80.68;28.67;;;;;;;10.77;100.00;101258.72;6192592;23;19993;-74
2022/10/23 05:01:55;;;;;;;76.85;31.02;;;;;;;10.83;100.00;101262.69;6214885;23;20004;-74
2022/10/23 05:04:20;;;;;;;49.78;23.10;;;;;;;10.80;100.00;101262.97;6217230;23;20336;-74
2022/10/23 05:06:45;;;;;;;52.70;24.05;;;;;;;10.95;100.00;101261.44;6193496;23;20008;-74
2022/10/23 05:09:14;;;;;;;45.50;22.73;;;;;;;10.87;100.00;101264.06;6194484;23;20023;-74
2022/10/23 05:11:39;;;;;;;76.63;30.58;;;;;;;10.77;100.00;101263.28;6192304;23;20079;-74
2022/10/23 05:14:05;;;;;;;59.97;26.02;;;;;;;10.76;100.00;101261.59;6193930;23;20005;-74
2022/10/23 05:16:54;;;;;;;62.60;27.02;;;;;;;10.74;100.00;101258.16;6192529;23;20005;-74
2022/10/23 05:19:28;;;;;;;51.03;21.88;;;;;;;10.85;100.00;101260.66;6193081;23;20016;-74
2022/10/23 05:21:54;;;;;;;72.82;28.40;;;;;;;10.81;100.00;101264.66;6192252;23;20048;-74
2022/10/23 05:24:21;;;;;;;40.22;20.33;;;;;;;10.76;100.00;101267.00;6192616;23;19997;-73
2022/10/23 05:26:50;;;;;;;40.78;21.13;;;;;;;10.79;100.00;101261.28;6192317;23;20001;-74
2022/10/23 05:29:16;;;;;;;46.33;22.45;;;;;;;10.88;100.00;101260.34;6192993;23;20005;-74
2022/10/23 05:31:41;;;;;;;48.83;20.08;;;;;;;10.74;100.00;101253.59;6192257;23;20012;-74
2022/10/23 05:34:07;;;;;;;47.70;20.70;;;;;;;10.80;100.00;101246.72;6192806;23;20040;-73
2022/10/23 05:36:32;;;;;;;54.05;24.60;;;;;;;10.62;100.00;101249.38;6192978;23;20001;-75
2022/10/23 05:38:58;;;;;;;43.70;21.27;;;;;;;10.55;100.00;101253.66;6217675;23;20071;-74
2022/10/23 05:41:23;;;;;;;39.17;18.35;;;;;;;10.57;100.00;101252.53;6192652;23;20132;-74
2022/10/23 05:43:49;;;;;;;48.47;20.58;;;;;;;10.58;100.00;101251.53;6192945;23;20051;-74
2022/10/23 05:46:17;;;;;;;47.60;20.67;;;;;;;10.69;100.00;101255.03;6192120;23;20005;-74
2022/10/23 05:48:43;;;;;;;38.90;19.35;;;;;;;10.62;100.00;101245.81;6192669;23;20111;-74
2022/10/23 05:51:10;;;;;;;60.08;23.25;;;;;;;10.55;100.00;101249.09;6192290;23;20432;-74
2022/10/23 05:53:35;;;;;;;80.57;26.90;;;;;;;10.35;100.00;101252.88;6192389;23;20001;-73
2022/10/23 05:56:07;;;;;;;68.80;27.88;;;;;;;10.28;100.00;101251.78;6192640;23;20100;-75
2022/10/23 05:58:35;;;;;;;;;;;;;;;10.21;100.00;101256.03;6193391;23;20063;-74
2022/10/23 06:01:06;;;;;;;48.53;21.63;;;;;;;10.28;100.00;101268.00;6193086;23;19990;-75
2022/10/23 06:03:32;;;;;;;41.83;21.30;;;;;;;10.37;100.00;101277.09;6193217;23;20367;-75
2022/10/23 06:05:58;;;;;;;55.10;24.90;;;;;;;10.45;100.00;101272.69;6192869;23;20012;-75
2022/10/23 06:08:24;;;;;;;73.80;29.38;;;;;;;10.35;100.00;101274.53;6218108;23;20004;-74
2022/10/23 06:10:52;;;;;;;64.57;26.27;;;;;;;10.15;100.00;101262.03;6192881;23;20012;-73
2022/10/23 06:13:18;;;;;;;67.00;25.45;;;;;;;10.13;100.00;101261.34;6192897;23;20016;-74
2022/10/23 06:15:49;;;;;;;58.63;25.65;;;;;;;10.19;100.00;101258.06;6192411;23;20005;-75
2022/10/23 06:18:15;;;;;;;48.47;23.00;;;;;;;10.16;100.00;101263.72;6192332;23;20058;-73
2022/10/23 06:20:40;;;;;;;68.78;27.17;;;;;;;10.24;100.00;101266.63;6192479;23;20020;-74
2022/10/23 06:23:06;;;;;;;68.47;27.67;;;;;;;10.19;100.00;101269.72;6217297;23;20125;-74
2022/10/23 06:25:32;;;;;;;57.38;23.88;;;;;;;10.27;100.00;101277.13;6192377;23;20012;-75
2022/10/23 06:27:58;;;;;;;62.80;25.55;;;;;;;10.28;100.00;101278.84;6192220;23;20035;-74
2022/10/23 06:30:23;;;;;;;56.10;24.70;;;;;;;10.47;100.00;101273.38;6191961;23;20004;-75
2022/10/23 06:32:49;;;;;;;48.22;22.75;;;;;;;10.50;100.00;101273.09;6193102;23;20025;-74
2022/10/23 06:35:15;;;;;;;41.78;20.52;;;;;;;10.51;100.00;101266.66;6192324;23;20494;-75
2022/10/23 06:37:40;;;;;;;58.97;22.20;;;;;;;10.55;100.00;101268.06;6192139;23;20076;-75
2022/10/23 06:40:07;;;;;;;50.28;21.67;;;;;;;10.56;100.00;101261.66;6191963;23;20007;-75
2022/10/23 06:42:33;;;;;;;39.95;19.20;;;;;;;10.74;100.00;101258.16;6192949;23;20349;-74
2022/10/23 06:44:58;;;;;;;55.88;22.55;;;;;;;10.72;100.00;101257.47;6191870;23;20004;-74
2022/10/23 06:47:24;;;;;;;43.53;18.80;;;;;;;10.51;100.00;101268.53;6193670;23;20001;-74
2022/10/23 06:49:49;;;;;;;46.17;20.60;;;;;;;10.67;100.00;101262.47;6191847;23;20005;-76
2022/10/23 06:52:15;;;;;;;55.33;22.75;;;;;;;10.73;100.00;101264.56;6217213;23;20031;-74
2022/10/23 06:54:40;;;;;;;37.47;18.88;;;;;;;10.76;100.00;101264.28;6217170;23;20001;-73
2022/10/23 06:57:05;;;;;;;31.67;15.77;;;;;;;10.79;100.00;101255.84;6216920;23;20009;-74
2022/10/23 06:59:31;;;;;;;46.60;18.45;;;;;;;10.81;100.00;101253.84;6194350;23;20055;-73
2022/10/23 07:01:56;;;;;;;44.30;20.10;;;;;;;10.75;100.00;101243.59;6219213;23;20016;-74
2022/10/23 07:04:22;;;;;;;33.70;17.42;;;;;;;11.03;100.00;101253.44;6194793;23;20020;-75
2022/10/23 07:06:48;;;;;;;45.67;17.42;;;;;;;11.14;100.00;101250.50;6194692;23;20005;-74
2022/10/23 07:09:13;;;;;;;44.20;18.45;;;;;;;11.10;100.00;101251.81;6219320;23;19998;-75
2022/10/23 07:11:39;;;;;;;41.35;20.38;;;;;;;11.05;100.00;101256.84;6194706;23;20020;-75
2022/10/23 07:14:04;;;;;;;47.35;20.77;;;;;;;11.09;100.00;101251.97;6194738;23;19997;-74
2022/10/23 07:16:30;;;;;;;45.72;18.38;;;;;;;11.22;100.00;101240.78;6218653;23;20001;-75
2022/10/23 07:18:58;;;;;;;44.60;17.20;;;;;;;10.94;100.00;101243.50;6193989;23;19996;-74
2022/10/23 07:21:29;;;;;;;32.90;18.30;;;;;;;11.05;100.00;101248.72;6193592;23;20005;-74
2022/10/23 07:23:56;;;;;;;44.45;20.35;;;;;;;11.21;100.00;101252.59;6194380;23;20008;-75
2022/10/23 07:26:21;;;;;;;34.78;17.77;;;;;;;11.21;100.00;101249.88;6194648;23;20059;-75
2022/10/23 07:28:49;;;;;;;38.67;18.38;;;;;;;11.26;100.00;101258.41;6194386;23;20001;-77
2022/10/23 07:31:15;;;;;;;43.63;17.38;;;;;;;11.59;100.00;101265.00;6194682;23;20001;-75
2022/10/23 07:33:40;;;;;;;32.03;16.95;;;;;;;11.62;100.00;101262.88;6193988;23;20013;-75
2022/10/23 07:36:07;;;;;;;55.80;20.30;;;;;;;11.40;100.00;101271.44;6193448;23;20095;-75
2022/10/23 07:38:33;;;;;;;42.17;17.80;;;;;;;11.39;100.00;101280.59;6193723;23;20001;-75
2022/10/23 07:40:59;;;;;;;40.55;18.60;;;;;;;11.55;100.00;101275.34;6193657;23;20015;-75
2022/10/23 07:43:25;;;;;;;29.85;15.52;;;;;;;11.49;100.00;101270.53;6194148;23;20012;-75
2022/10/23 07:45:52;;;;;;;39.85;18.00;;;;;;;11.57;100.00;101267.03;6193226;23;20385;-75
2022/10/23 07:48:19;;;;;;;40.30;18.85;;;;;;;11.76;100.00;101266.03;6195193;23;19997;-75
2022/10/23 07:50:45;;;;;;;32.97;14.75;;;;;;;11.81;100.00;101269.16;6193250;23;20005;-75
2022/10/23 07:53:18;;;;;;;39.15;15.60;;;;;;;12.03;100.00;101263.22;6193425;23;20027;-75
2022/10/23 07:55:51;;;;;;;30.80;15.00;;;;;;;12.01;100.00;101264.41;6193872;23;20008;-75
2022/10/23 07:58:17;;;;;;;34.30;16.30;;;;;;;12.06;100.00;101268.34;6194089;23;20004;-74
2022/10/23 08:00:44;;;;;;;26.08;13.60;;;;;;;12.17;100.00;101268.06;6218292;23;20008;-75
2022/10/23 08:03:11;;;;;;;27.35;12.55;;;;;;;12.34;100.00;101268.19;6192905;23;20016;-74
2022/10/23 08:05:37;;;;;;;30.55;12.63;;;;;;;12.34;100.00;101265.47;6193426;23;20011;-76
2022/10/23 08:08:03;;;;;;;26.40;10.48;;;;;;;12.45;100.00;101262.47;6192680;23;20012;-74
2022/10/23 08:10:28;;;;;;;21.20;11.48;;;;;;;12.60;100.00;101247.28;6192943;23;20024;-75
2022/10/23 08:12:54;;;;;;;25.45;9.60;;;;;;;12.50;100.00;101238.41;6194533;23;20506;-74
2022/10/23 08:15:19;;;;;;;21.83;9.93;;;;;;;12.57;100.00;101239.47;6197656;23;20020;-74
2022/10/23 08:17:45;;;;;;;20.48;9.70;;;;;;;12.78;100.00;101247.22;6167583;23;20060;-74
2022/10/23 08:20:12;;;;;;;25.55;9.23;;;;;;;12.99;100.00;101244.06;6168172;23;20004;-74
2022/10/23 08:22:38;;;;;;;15.23;10.10;;;;;;;13.12;100.00;101249.03;6194540;23;19996;-74
2022/10/23 08:25:04;;;;;;;14.90;7.93;;;;;;;13.49;100.00;101245.88;6195639;23;20000;-74
2022/10/23 08:27:30;;;;;;;23.30;7.88;;;;;;;13.63;100.00;101245.25;6170533;23;20013;-75
2022/10/23 08:29:55;;;;;;;19.17;7.97;;;;;;;13.78;100.00;101246.25;6169536;23;20001;-74
2022/10/23 08:32:20;;;;;;;13.10;7.07;;;;;;;13.95;100.00;101235.34;6170038;23;20004;-75
2022/10/23 08:34:46;;;;;;;18.80;7.85;;;;;;;14.15;100.00;101235.84;6170462;23;20359;-74
2022/10/23 08:37:11;;;;;;;17.25;7.63;;;;;;;14.32;100.00;101237.50;6170041;23;20009;-74
2022/10/23 08:39:36;;;;;;;17.42;7.45;;;;;;;14.70;100.00;101230.44;6169532;23;20332;-74
2022/10/23 08:42:02;;;;;;;16.35;7.15;;;;;;;14.73;100.00;101230.09;6196314;23;20020;-75
2022/10/23 08:44:43;;;;;;;22.58;8.80;;;;;;;14.90;100.00;101228.16;6170148;23;20001;-75
2022/10/23 08:47:18;;;;;;;11.13;7.20;;;;;;;14.96;100.00;101229.31;6169529;23;20000;-75
2022/10/23 08:49:49;;;;;;;13.85;6.95;;;;;;;15.04;100.00;101221.09;6169348;23;20020;-75
2022/10/23 08:52:27;;;;;;;20.70;7.05;;;;;;;15.13;99.41;101225.47;6169599;23;20007;-75
2022/10/23 08:55:03;;;;;;;14.05;6.45;;;;;;;14.98;99.76;101232.69;6169539;23;20000;-75
2022/10/23 08:57:35;;;;;;;16.27;6.57;;;;;;;14.88;99.88;101228.31;6169316;23;20341;-75
2022/10/23 09:00:07;;;;;;;15.63;6.57;;;;;;;15.22;99.16;101224.38;6169211;23;20015;-75
2022/10/23 09:02:43;;;;;;;14.93;7.60;;;;;;;15.26;99.09;101214.81;6169922;23;20005;-75
2022/10/23 09:05:29;;;;;;;17.13;6.72;;;;;;;15.18;98.49;101223.03;6169025;23;20012;-75
2022/10/23 09:08:11;;;;;;;15.35;6.53;;;;;;;15.16;99.33;101223.22;6169666;23;20009;-75
2022/10/23 09:10:56;;;;;;;21.35;7.85;;;;;;;15.31;99.78;101212.38;6169081;23;20025;-75
2022/10/23 09:13:40;;;;;;;19.67;5.78;;;;;;;15.25;99.64;101213.09;6169395;23;20001;-75
2022/10/23 09:16:24;;;;;;;16.17;7.15;;;;;;;15.14;100.00;101221.72;6168723;23;20034;-74
2022/10/23 09:18:49;;;;;;;18.38;6.68;;;;;;;15.28;99.00;101209.19;6168853;23;20388;-74
2022/10/23 09:21:15;;;;;;;24.60;6.43;;;;;;;15.47;97.92;101206.81;6169282;23;19997;-75
2022/10/23 09:23:40;;;;;;;20.08;5.88;;;;;;;15.37;97.90;101206.19;6169008;23;20019;-75
2022/10/23 09:26:13;;;;;;;12.15;5.50;;;;;;;15.33;97.05;101204.88;6168609;23;20031;-75
2022/10/23 09:28:46;;;;;;;23.58;8.38;;;;;;;15.16;97.30;101203.28;6168310;23;20012;-75
2022/10/23 09:31:12;;;;;;;15.73;5.53;;;;;;;15.17;97.72;101199.53;6168592;23;20005;-75
2022/10/23 09:33:38;;;;;;;10.90;4.95;;;;;;;15.48;98.28;101196.75;6169340;23;20371;-75
2022/10/23 09:36:04;;;;;;;21.25;5.07;;;;;;;15.47;96.98;101195.06;6169916;23;19997;-73
2022/10/23 09:38:34;;;;;;;16.02;4.75;;;;;;;15.66;96.48;101199.22;6169704;23;20047;-73
2022/10/23 09:41:16;;;;;;;18.48;5.07;;;;;;;15.75;96.86;101189.91;6170486;23;19997;-76
2022/10/23 09:43:42;;;;;;;18.42;4.70;;;;;;;15.64;96.60;101209.44;6169499;23;19997;-78
2022/10/23 09:46:09;;;;;;;16.35;5.32;;;;;;;15.95;95.83;101209.34;6169021;23;20038;-78
2022/10/23 09:48:35;;;;;;;17.65;5.60;;;;;;;15.81;95.72;101208.28;6168487;23;19997;-77
2022/10/23 09:51:03;;;;;;;10.38;5.03;;;;;;;15.77;96.28;101201.47;6169645;23;20015;-77
2022/10/23 09:53:34;;;;;;;18.30;4.88;;;;;;;15.74;96.24;101208.16;6163984;23;20005;-77
2022/10/23 09:56:26;;;;;;;17.38;4.63;;;;;;;15.94;95.15;101197.56;6154939;23;20104;-77
2022/10/23 09:59:01;;;;;;;15.27;5.22;;;;;;;15.67;95.65;101211.81;6160126;23;19997;-77
2022/10/23 10:01:31;;;;;;;12.35;4.68;;;;;;;15.80;96.00;101206.59;6187739;23;20095;-77
2022/10/23 10:03:57;;;;;;;27.88;5.60;;;;;;;15.63;95.41;101202.28;6161555;23;20021;-77
2022/10/23 10:06:31;;;;;;;17.67;4.82;;;;;;;15.86;95.20;101205.84;6163683;23;20001;-77
2022/10/23 10:09:06;;;;;;;16.35;4.68;;;;;;;15.93;94.93;101201.34;6163172;23;20312;-77
2022/10/23 10:11:46;;;;;;;20.17;4.70;;;;;;;16.16;94.27;101208.63;6188870;23;20008;-77
2022/10/23 10:14:49;;;;;;;19.30;5.18;;;;;;;16.06;93.96;101199.88;6187573;23;20004;-76
2022/10/23 10:17:33;;;;;;;14.07;5.13;;;;;;;15.81;94.19;101197.34;6133223;23;20001;-77
2022/10/23 10:20:16;;;;;;;18.63;6.45;;;;;;;15.71;94.64;101191.28;6134742;23;20009;-77
2022/10/23 10:23:09;;;;;;;13.93;6.15;;;;;;;16.04;94.21;101186.41;6134307;23;20088;-76
2022/10/23 10:25:43;;;;;;;18.63;5.70;;;;;;;16.10;93.42;101184.78;6159938;23;20037;-77
2022/10/23 10:28:20;;;;;;;22.50;6.25;;;;;;;15.91;94.23;101176.13;6133229;23;20013;-77
2022/10/23 10:30:51;;;;;;;19.25;6.97;;;;;;;15.93;94.15;101174.03;6133611;23;20002;-77
2022/10/23 10:33:23;;;;;;;14.27;5.60;;;;;;;15.88;94.41;101176.47;6134443;23;20016;-78
2022/10/23 10:36:12;;;;;;;15.32;5.15;;;;;;;16.13;93.32;101168.03;6135247;23;20001;-78
2022/10/23 10:38:46;;;;;;;23.63;4.90;;;;;;;16.13;93.69;101173.50;6132995;23;20009;-79
2022/10/23 10:41:18;;;;;;;22.80;5.22;;;;;;;16.22;93.43;101161.44;6132660;23;20084;-78
2022/10/23 10:44:10;;;;;;;13.15;4.93;;;;;;;16.63;92.25;101155.50;6134033;23;20009;-76
2022/10/23 10:46:48;;;;;;;15.88;5.53;;;;;;;16.74;90.79;101141.34;6132034;23;20012;-76
2022/10/23 10:49:25;;;;;;;15.65;5.15;;;;;;;16.81;90.29;101142.25;6132954;23;20008;-76
2022/10/23 10:52:07;;;;;;;15.38;4.57;;;;;;;16.88;90.24;101134.97;6158288;23;20056;-77
2022/10/23 10:54:40;;;;;;;11.63;5.13;;;;;;;17.07;89.18;101139.81;6159558;23;20012;-77
2022/10/23 10:57:20;;;;;;;27.10;5.22;;;;;;;16.88;89.83;101134.97;6133262;23;20001;-77
2022/10/23 10:59:50;;;;;;;14.48;5.65;;;;;;;16.85;90.07;101135.38;6133796;23;20085;-77
2022/10/23 11:02:21;;;;;;;15.25;4.63;;;;;;;16.95;89.35;101141.38;6160994;23;20033;-77
2022/10/23 11:05:08;;;;;;;12.98;5.15;;;;;;;17.12;89.03;101135.66;6134593;23;20013;-77
2022/10/23 11:07:40;;;;;;;28.38;5.60;;;;;;;17.00;89.49;101125.22;6159148;23;19997;-77
2022/10/23 11:10:13;;;;;;;;;;;;;;;17.46;88.42;101113.88;6161247;23;19997;-77
2022/10/23 11:12:39;;;;;;;15.82;5.18;;;;;;;17.19;88.48;101106.47;6134333;23;19928;-76
2022/10/23 11:15:12;;;;;;;12.43;4.97;;;;;;;17.30;88.31;101097.75;6159791;23;20020;-77
2022/10/23 11:17:45;;;;;;;13.13;4.50;;;;;;;17.38;87.95;101100.31;6132572;23;20001;-77